Time;durP1;ratioP1;P1;durP2;ratioP2;P2;SDS_P1;SDS_P2;PMS_P1;PMS_P2;Temp;Humidity;BMP_temperature;BMP_pressure;BME280_temperature;BME280_humidity;BME280_pressure;Samples;Min_cycle;Max_cycle;Signal;HPM_P1;HPM_P2
2022/01/09 00:03:45;;;;;;;229.53;114.33;;;-1.80;99.90;;;;;;10304535;28;20038;-85
2022/01/09 00:08:46;;;;;;;202.83;103.27;;;-1.70;99.90;;;;;;10332517;28;20567;-86
2022/01/09 00:13:47;;;;;;;223.47;107.67;;;-1.60;99.90;;;;;;10295096;28;20486;-85
2022/01/09 00:18:49;;;;;;;227.77;105.13;;;-1.60;99.90;;;;;;10289798;28;20041;-85
2022/01/09 00:23:50;;;;;;;214.47;105.17;;;-1.50;99.90;;;;;;10296662;28;20070;-87
2022/01/09 00:28:50;;;;;;;201.27;97.57;;;-1.50;99.90;;;;;;10311153;28;20057;-86
2022/01/09 00:33:51;;;;;;;216.20;108.70;;;-1.40;99.90;;;;;;10301313;28;20038;-86
2022/01/09 00:38:52;;;;;;;213.33;104.40;;;-1.40;99.90;;;;;;10331664;28;20121;-90
2022/01/09 00:43:52;;;;;;;217.23;102.90;;;-1.40;99.90;;;;;;10330324;28;20410;-85
2022/01/09 00:48:53;;;;;;;207.27;102.30;;;-1.30;99.90;;;;;;10329970;28;20683;-87
2022/01/09 00:53:54;;;;;;;205.87;105.93;;;-1.30;99.90;;;;;;10311956;28;20032;-86
2022/01/09 00:58:54;;;;;;;194.70;95.90;;;-1.20;99.90;;;;;;10330563;28;20113;-89
2022/01/09 01:03:55;;;;;;;204.17;95.73;;;-1.20;99.90;;;;;;10309223;28;20071;-86
2022/01/09 01:08:56;;;;;;;203.53;101.63;;;-1.10;99.90;;;;;;10330555;28;20540;-87
2022/01/09 01:13:57;;;;;;;214.13;103.17;;;-1.10;99.90;;;;;;10324353;28;20037;-86
2022/01/09 01:18:59;;;;;;;230.67;112.40;;;-1.10;99.90;;;;;;10301535;28;20398;-87
2022/01/09 01:23:59;;;;;;;201.53;98.70;;;-1.10;99.90;;;;;;10312570;28;20042;-85
2022/01/09 01:29:00;;;;;;;210.17;100.40;;;-1.10;99.90;;;;;;10288379;28;20042;-85
2022/01/09 01:34:01;;;;;;;196.00;95.63;;;-1.00;99.90;;;;;;10297661;28;20046;-88
2022/01/09 01:39:02;;;;;;;202.60;98.97;;;-1.00;99.90;;;;;;10289438;28;20035;-87
2022/01/09 01:44:08;;;;;;;200.03;92.47;;;-0.90;99.90;;;;;;10311551;28;20125;-85
2022/01/09 01:49:12;;;;;;;214.32;94.57;;;-0.90;99.90;;;;;;10296484;28;20047;-85
2022/01/09 01:54:14;;;;;;;212.30;97.23;;;-0.90;99.90;;;;;;10320953;28;20034;-89
2022/01/09 01:59:14;;;;;;;208.27;97.53;;;-0.90;99.90;;;;;;10324743;28;20023;-85
2022/01/09 02:04:15;;;;;;;205.17;99.37;;;-0.90;99.90;;;;;;10274912;28;20035;-85
2022/01/09 02:09:16;;;;;;;201.60;94.90;;;-0.90;99.90;;;;;;10315513;28;20084;-87
2022/01/09 02:14:17;;;;;;;194.43;90.27;;;-0.90;99.90;;;;;;10326143;28;20034;-85
2022/01/09 02:19:21;;;;;;;195.27;96.53;;;-0.90;99.90;;;;;;10306252;28;20084;-86
2022/01/09 02:24:23;;;;;;;215.87;100.67;;;-0.90;99.90;;;;;;10287591;28;20118;-86
2022/01/09 02:29:24;;;;;;;203.73;96.73;;;-0.90;99.90;;;;;;10287163;28;20034;-85
2022/01/09 02:34:24;;;;;;;217.50;101.13;;;-0.80;99.90;;;;;;10325079;28;20030;-86
2022/01/09 02:39:25;;;;;;;210.83;98.13;;;-0.80;99.90;;;;;;10324000;28;20101;-87
2022/01/09 02:44:26;;;;;;;207.37;102.43;;;-0.80;99.90;;;;;;10309916;28;20038;-88
2022/01/09 02:49:28;;;;;;;204.53;99.23;;;-0.80;99.90;;;;;;10292388;28;20526;-85
2022/01/09 02:59:47;;;;;;;182.57;86.03;;;-0.80;99.90;;;;;;10350993;28;20092;-86
2022/01/09 03:04:48;;;;;;;165.60;82.00;;;-0.80;99.90;;;;;;10321114;28;20073;-86
2022/01/09 03:09:49;;;;;;;159.80;77.57;;;-0.90;99.90;;;;;;10334825;28;20343;-88
2022/01/09 03:14:50;;;;;;;169.27;79.20;;;-0.90;99.90;;;;;;10340123;28;20064;-86
2022/01/09 03:19:50;;;;;;;176.10;80.33;;;-0.90;99.90;;;;;;10336215;28;20038;-88
2022/01/09 03:24:51;;;;;;;145.67;72.47;;;-0.80;99.90;;;;;;10334815;28;20038;-90
2022/01/09 03:29:52;;;;;;;145.93;72.40;;;-0.80;99.90;;;;;;10335695;28;20117;-86
2022/01/09 03:34:53;;;;;;;147.77;69.27;;;-0.80;99.90;;;;;;10372471;28;20058;-85
2022/01/09 03:39:54;;;;;;;135.67;64.73;;;-0.80;99.90;;;;;;10356961;28;20124;-86
2022/01/09 03:44:55;;;;;;;136.40;66.33;;;-0.80;99.90;;;;;;10353677;28;20125;-86
2022/01/09 03:49:55;;;;;;;154.20;71.97;;;-0.80;99.90;;;;;;10335609;28;20129;-86
2022/01/09 03:54:56;;;;;;;149.43;69.63;;;-0.90;99.90;;;;;;10336049;28;20129;-86
2022/01/09 03:59:56;;;;;;;155.30;70.73;;;-0.90;99.90;;;;;;10338297;28;20514;-86
2022/01/09 04:04:57;;;;;;;130.63;65.13;;;-1.10;99.90;;;;;;10320483;28;20474;-90
2022/01/09 04:09:58;;;;;;;140.90;65.23;;;-1.20;99.90;;;;;;10308572;28;20364;-86
2022/01/09 04:15:04;;;;;;;133.23;61.57;;;-1.50;99.90;;;;;;10297715;28;20692;-87
2022/01/09 04:20:06;;;;;;;159.68;71.30;;;-1.70;99.90;;;;;;10331205;28;20142;-87
2022/01/09 04:25:08;;;;;;;160.63;78.03;;;-1.90;99.90;;;;;;10308544;28;20035;-89
2022/01/09 04:30:09;;;;;;;191.93;88.20;;;-2.10;99.90;;;;;;10293132;28;20031;-86
2022/01/09 04:35:11;;;;;;;176.70;82.20;;;-2.10;99.90;;;;;;10312425;28;20030;-86
2022/01/09 04:40:14;;;;;;;153.20;74.73;;;-2.10;99.90;;;;;;10313897;28;20026;-89
2022/01/09 04:45:16;;;;;;;141.13;69.53;;;-2.00;99.90;;;;;;10311805;28;20038;-87
2022/01/09 04:50:24;;;;;;;143.73;67.23;;;-1.90;99.90;;;;;;10291208;28;20050;-86
2022/01/09 04:55:25;;;;;;;142.13;66.83;;;-1.90;99.90;;;;;;10313280;28;20177;-87
2022/01/09 05:00:26;;;;;;;129.90;62.37;;;-1.90;99.90;;;;;;10307552;28;20034;-87
2022/01/09 05:05:27;;;;;;;119.13;58.07;;;-1.80;99.90;;;;;;10319100;28;20038;-88
2022/01/09 05:10:28;;;;;;;125.83;63.70;;;-1.80;99.90;;;;;;10312720;28;20412;-86
2022/01/09 05:15:28;;;;;;;135.97;66.23;;;-1.70;99.90;;;;;;10292686;28;20129;-88
2022/01/09 05:20:29;;;;;;;131.90;73.03;;;-1.60;99.90;;;;;;10288896;28;20026;-86
2022/01/09 05:25:30;;;;;;;129.13;65.10;;;-1.60;99.90;;;;;;10294749;28;20039;-87
2022/01/09 05:30:31;;;;;;;126.43;61.83;;;-1.60;99.90;;;;;;10293958;28;20058;-86
2022/01/09 05:35:32;;;;;;;133.50;61.47;;;-1.70;99.90;;;;;;10328397;28;20038;-88
2022/01/09 05:40:32;;;;;;;133.30;61.37;;;-1.80;99.90;;;;;;10328739;28;20042;-86
2022/01/09 05:45:33;;;;;;;138.13;64.20;;;-2.00;99.90;;;;;;10321593;28;20046;-87
2022/01/09 05:50:34;;;;;;;135.83;65.87;;;-2.20;99.90;;;;;;10286953;28;20141;-88
2022/01/09 05:55:35;;;;;;;132.30;62.10;;;-2.40;99.90;;;;;;10323892;28;20041;-86
2022/01/09 06:00:35;;;;;;;150.77;72.50;;;-2.50;99.90;;;;;;10300614;28;20040;-85
2022/01/09 06:05:36;;;;;;;151.43;76.07;;;-2.70;99.90;;;;;;10302453;28;20213;-87
2022/01/09 06:10:37;;;;;;;160.50;73.27;;;-2.80;99.90;;;;;;10291298;28;20044;-88
2022/01/09 06:15:37;;;;;;;176.97;83.97;;;-2.90;99.90;;;;;;10323149;28;20039;-87
2022/01/09 06:20:39;;;;;;;176.63;83.53;;;-3.00;99.90;;;;;;10301229;28;20038;-87
2022/01/09 06:25:40;;;;;;;160.87;75.27;;;-3.00;99.90;;;;;;10327459;28;20185;-88
2022/01/09 06:30:42;;;;;;;155.70;73.97;;;-3.00;99.90;;;;;;10289008;28;20034;-85
2022/01/09 06:35:44;;;;;;;165.10;78.90;;;-3.10;99.90;;;;;;10309881;28;20034;-86
2022/01/09 06:40:44;;;;;;;155.27;73.50;;;-3.10;99.90;;;;;;10326989;28;20137;-89
2022/01/09 06:45:45;;;;;;;143.67;67.10;;;-3.10;99.90;;;;;;10291260;28;20051;-86
2022/01/09 06:50:46;;;;;;;218.13;91.77;;;-3.10;99.90;;;;;;10305327;28;20054;-86
2022/01/09 06:55:46;;;;;;;171.90;79.00;;;-3.10;99.90;;;;;;10325557;28;20061;-86
2022/01/09 07:00:48;;;;;;;263.80;110.57;;;-3.10;99.90;;;;;;10320215;28;20034;-88
2022/01/09 07:05:49;;;;;;;188.83;82.60;;;-3.00;99.90;;;;;;10314275;28;20042;-85
2022/01/09 07:10:49;;;;;;;465.10;192.93;;;-3.00;99.90;;;;;;10327719;28;20034;-85
2022/01/09 07:15:50;;;;;;;528.33;229.37;;;-3.10;99.90;;;;;;10354293;28;20121;-84
2022/01/09 07:20:51;;;;;;;317.87;122.23;;;-3.10;99.90;;;;;;10334073;28;20030;-89
2022/01/09 07:25:52;;;;;;;161.80;71.37;;;-3.10;99.90;;;;;;10331830;28;20054;-87
2022/01/09 07:30:53;;;;;;;192.80;87.40;;;-3.10;99.90;;;;;;10347269;28;20033;-88
2022/01/09 07:35:53;;;;;;;438.57;173.93;;;-3.10;99.90;;;;;;10346006;28;20177;-85
2022/01/09 07:40:54;;;;;;;433.23;165.13;;;-3.00;99.90;;;;;;10353909;28;20030;-84
2022/01/09 07:45:55;;;;;;;463.97;188.80;;;-2.90;99.90;;;;;;10327435;28;20046;-86
2022/01/09 07:50:56;;;;;;;551.77;254.33;;;-2.80;99.90;;;;;;10358367;28;20382;-84
2022/01/09 07:55:56;;;;;;;389.53;172.10;;;-2.60;99.90;;;;;;10339340;28;20026;-87
2022/01/09 08:00:58;;;;;;;370.10;174.77;;;-2.40;99.90;;;;;;10342753;28;20049;-85
2022/01/09 08:05:58;;;;;;;254.13;124.23;;;-2.20;99.90;;;;;;10352682;28;20400;-85
2022/01/09 08:10:59;;;;;;;223.57;107.33;;;-1.90;99.90;;;;;;10369737;28;20036;-86
2022/01/09 08:16:00;;;;;;;187.07;88.80;;;-1.70;99.90;;;;;;10348315;28;20077;-85
2022/01/09 08:21:00;;;;;;;309.90;154.17;;;-1.40;99.90;;;;;;10333021;28;20129;-89
2022/01/09 08:26:01;;;;;;;118.80;55.90;;;-1.10;99.90;;;;;;10328514;28;20132;-86
2022/01/09 08:31:02;;;;;;;170.77;81.07;;;-0.90;99.90;;;;;;10338593;28;20060;-88
2022/01/09 08:36:03;;;;;;;113.83;54.50;;;-0.50;99.90;;;;;;10368521;28;20109;-83
2022/01/09 08:41:04;;;;;;;125.13;59.17;;;-0.30;99.90;;;;;;10357690;28;20800;-86
2022/01/09 08:46:05;;;;;;;125.10;55.97;;;0.00;99.90;;;;;;10336053;28;20038;-86
2022/01/09 08:51:06;;;;;;;203.73;90.33;;;0.20;99.90;;;;;;10351278;28;20053;-86
2022/01/09 08:56:07;;;;;;;159.90;63.37;;;0.40;99.90;;;;;;10338033;28;20029;-85
2022/01/09 09:01:08;;;;;;;154.40;71.27;;;0.70;99.90;;;;;;10325496;28;20529;-87
2022/01/09 09:06:15;;;;;;;142.63;66.10;;;0.80;99.90;;;;;;10301135;28;20038;-86
2022/01/09 09:11:16;;;;;;;140.30;58.97;;;1.00;99.90;;;;;;10292095;28;20041;-84
2022/01/09 09:16:17;;;;;;;96.27;40.83;;;1.20;99.90;;;;;;10301402;28;20037;-88
2022/01/09 09:21:18;;;;;;;322.87;154.07;;;1.40;99.90;;;;;;10312689;28;20061;-84
2022/01/09 09:26:21;;;;;;;255.67;112.63;;;1.60;99.90;;;;;;10334587;28;20045;-84
2022/01/09 09:31:22;;;;;;;262.77;123.37;;;1.90;99.90;;;;;;10295121;28;20023;-87
2022/01/09 09:36:24;;;;;;;237.27;116.03;;;2.10;99.90;;;;;;10309914;28;20679;-85
2022/01/09 09:41:25;;;;;;;124.03;62.77;;;2.30;99.90;;;;;;10294609;28;20088;-86
2022/01/09 09:46:26;;;;;;;73.67;34.77;;;2.50;99.90;;;;;;10312366;28;20046;-86
2022/01/09 09:51:29;;;;;;;82.43;43.27;;;2.60;99.90;;;;;;10318864;28;20065;-84
2022/01/09 09:56:29;;;;;;;60.10;30.03;;;2.80;99.90;;;;;;10307119;28;20038;-88
2022/01/09 10:01:33;;;;;;;46.00;22.43;;;2.90;99.90;;;;;;10304756;28;20038;-87
2022/01/09 10:06:37;;;;;;;52.30;24.40;;;3.10;99.90;;;;;;10315294;28;20145;-85
2022/01/09 10:12:03;;;;;;;45.00;23.83;;;3.20;99.90;;;;;;10312893;28;20034;-88
2022/01/09 10:17:16;;;;;;;54.20;29.38;;;3.30;99.90;;;;;;10320339;28;20475;-87
2022/01/09 10:22:28;;;;;;;55.50;28.37;;;3.50;99.90;;;;;;10301875;28;20103;-88
2022/01/09 10:27:34;;;;;;;78.43;37.90;;;3.60;99.90;;;;;;10311020;28;20050;-85
2022/01/09 10:32:35;;;;;;;;;;;3.70;99.90;;;;;;10325916;28;20080;-87
2022/01/09 10:37:36;;;;;;;50.50;27.37;;;3.70;99.90;;;;;;10309256;28;20016;-86
2022/01/09 10:42:38;;;;;;;44.03;21.23;;;3.80;99.90;;;;;;10324089;28;20018;-87
2022/01/09 10:47:39;;;;;;;64.93;33.50;;;4.00;99.90;;;;;;10324093;28;20046;-86
2022/01/09 10:52:41;;;;;;;94.83;40.97;;;4.20;99.90;;;;;;10327143;28;20046;-87
2022/01/09 10:57:42;;;;;;;70.87;32.47;;;4.20;99.90;;;;;;10327263;28;20034;-85
2022/01/09 11:02:45;;;;;;;126.27;50.60;;;4.30;99.90;;;;;;10309729;28;20049;-87
2022/01/09 11:07:46;;;;;;;34.33;17.73;;;4.30;99.90;;;;;;10325559;28;20039;-85
2022/01/09 11:12:49;;;;;;;67.60;25.30;;;4.40;99.90;;;;;;10327517;28;20121;-86
2022/01/09 11:17:52;;;;;;;55.67;23.70;;;4.40;99.90;;;;;;10320677;28;20117;-87
2022/01/09 11:22:58;;;;;;;107.70;38.40;;;4.40;99.90;;;;;;10313339;28;20052;-85
2022/01/09 11:28:12;;;;;;;52.67;20.52;;;4.30;99.90;;;;;;10336505;28;20129;-89
2022/01/09 11:33:44;;;;;;;169.17;51.50;;;4.20;99.90;;;;;;10349092;28;20026;-86
2022/01/09 11:39:16;;;;;;;45.13;17.67;;;4.20;99.90;;;;;;10334417;28;20157;-87
2022/01/09 11:44:22;;;;;;;85.23;30.57;;;4.20;99.90;;;;;;10309679;28;20066;-88
2022/01/09 11:49:23;;;;;;;;;;;4.30;99.90;;;;;;10316806;28;20129;-85
2022/01/09 11:54:25;;;;;;;127.43;47.63;;;4.30;99.90;;;;;;10333200;28;19910;-87
2022/01/09 11:59:32;;;;;;;126.70;49.50;;;4.40;99.90;;;;;;10333199;28;20041;-88
2022/01/09 12:04:33;;;;;;;133.00;59.10;;;4.40;99.90;;;;;;10348084;28;20121;-87
2022/01/09 12:09:41;;;;;;;412.57;181.30;;;4.40;99.90;;;;;;10342585;28;20105;-86
2022/01/09 12:14:42;;;;;;;278.50;118.80;;;4.40;99.90;;;;;;10332534;28;20027;-85
2022/01/09 12:20:05;;;;;;;49.13;22.33;;;4.30;99.90;;;;;;10356672;28;20022;-86
2022/01/09 12:25:07;;;;;;;185.70;84.37;;;4.30;99.90;;;;;;10336442;28;20057;-84
2022/01/09 12:30:10;;;;;;;131.80;59.43;;;4.40;99.90;;;;;;10359772;28;20064;-86
2022/01/09 12:35:12;;;;;;;123.80;53.57;;;4.40;99.90;;;;;;10338777;28;20038;-85
2022/01/09 12:40:17;;;;;;;54.43;25.50;;;4.40;99.90;;;;;;10329971;28;20024;-84
2022/01/09 12:45:20;;;;;;;34.03;17.95;;;4.40;99.90;;;;;;10299432;28;20034;-86
2022/01/09 12:50:37;;;;;;;139.33;57.17;;;4.30;98.80;;;;;;10274508;28;20057;-90
2022/01/09 12:56:11;;;;;;;189.23;81.10;;;4.10;99.70;;;;;;10303333;28;20483;-88
2022/01/09 13:01:19;;;;;;;316.10;131.80;;;4.00;99.90;;;;;;10281660;28;20410;-89
2022/01/09 13:06:31;;;;;;;112.20;44.57;;;3.90;95.90;;;;;;10330339;28;20077;-87
2022/01/09 13:11:33;;;;;;;156.93;65.33;;;3.80;95.00;;;;;;10299590;28;20027;-90
2022/01/09 13:16:35;;;;;;;180.03;80.70;;;3.70;94.80;;;;;;10280398;28;20046;-88
2022/01/09 13:21:45;;;;;;;202.10;92.43;;;3.60;94.70;;;;;;10307692;28;20030;-89
2022/01/09 13:26:54;;;;;;;120.50;52.53;;;3.60;94.10;;;;;;10304368;28;20038;-87
2022/01/09 13:31:57;;;;;;;62.23;30.43;;;3.60;93.30;;;;;;10325998;28;20026;-87
2022/01/09 13:37:07;;;;;;;251.40;96.10;;;3.50;91.80;;;;;;10317735;28;20088;-87
2022/01/09 13:42:14;;;;;;;329.70;125.70;;;3.50;91.70;;;;;;10322350;28;20026;-86
2022/01/09 13:47:17;;;;;;;148.77;49.97;;;3.40;92.30;;;;;;10316385;28;20125;-86
2022/01/09 13:52:23;;;;;;;202.40;73.70;;;3.30;92.30;;;;;;10326146;28;20093;-87
2022/01/09 13:57:27;;;;;;;316.00;110.93;;;3.30;91.60;;;;;;10320796;28;20043;-86
2022/01/09 14:02:39;;;;;;;195.10;72.30;;;3.20;92.00;;;;;;10317439;28;20034;-86
2022/01/09 14:07:51;;;;;;;183.80;68.87;;;3.10;92.60;;;;;;10309318;28;20034;-86
2022/01/09 14:12:52;;;;;;;140.10;52.20;;;3.00;92.70;;;;;;10326486;28;20385;-86
2022/01/09 14:17:54;;;;;;;388.67;154.10;;;3.00;93.10;;;;;;10321020;28;20046;-86
2022/01/09 14:22:57;;;;;;;68.77;28.50;;;2.90;93.50;;;;;;10326005;28;20114;-86
2022/01/09 14:28:04;;;;;;;85.87;41.70;;;2.80;93.20;;;;;;10333862;28;20556;-86
2022/01/09 14:33:20;;;;;;;71.63;35.47;;;2.70;93.70;;;;;;10334688;28;20506;-86
2022/01/09 14:38:29;;;;;;;63.65;31.73;;;2.50;94.20;;;;;;10326565;28;20040;-87
2022/01/09 14:43:33;;;;;;;72.20;34.50;;;2.40;94.70;;;;;;10325331;28;20031;-87
2022/01/09 14:48:36;;;;;;;91.73;43.97;;;2.20;95.30;;;;;;10309064;28;20046;-86
2022/01/09 14:53:38;;;;;;;96.87;45.13;;;2.00;95.60;;;;;;10327063;28;20026;-87
2022/01/09 14:58:40;;;;;;;103.70;45.07;;;1.80;96.30;;;;;;10324416;28;20039;-86
2022/01/09 15:04:17;;;;;;;159.70;66.70;;;1.60;96.80;;;;;;10324209;28;20054;-88
2022/01/09 15:09:18;;;;;;;173.83;64.73;;;1.30;97.60;;;;;;10327006;28;20041;-87
2022/01/09 15:14:20;;;;;;;180.70;76.83;;;1.00;98.80;;;;;;10326902;28;20039;-86
2022/01/09 15:19:22;;;;;;;159.57;70.83;;;0.90;99.90;;;;;;10297683;28;20378;-88
2022/01/09 15:24:23;;;;;;;186.27;79.87;;;0.70;99.90;;;;;;10326212;28;20038;-86
2022/01/09 15:29:24;;;;;;;260.03;104.37;;;0.60;99.90;;;;;;10318402;28;20049;-87
2022/01/09 15:34:25;;;;;;;354.53;124.80;;;0.40;99.90;;;;;;10338530;28;20026;-89
2022/01/09 15:39:26;;;;;;;300.33;103.20;;;0.40;99.90;;;;;;10330006;28;20035;-88
2022/01/09 15:44:27;;;;;;;345.17;118.57;;;0.30;99.90;;;;;;10326027;28;20042;-87
2022/01/09 15:49:28;;;;;;;240.67;96.27;;;0.20;99.90;;;;;;10322738;28;20621;-88
2022/01/09 15:54:29;;;;;;;275.67;106.57;;;0.20;99.90;;;;;;10307720;28;20086;-86
2022/01/09 16:16:29;;;;;;;222.50;82.83;;;0.10;99.90;;;;;;11607902;23;20062;-89
2022/01/09 16:21:30;;;;;;;170.87;69.10;;;0.10;99.90;;;;;;10288001;28;20023;-88
2022/01/09 16:26:31;;;;;;;144.80;55.90;;;0.10;99.90;;;;;;10270874;28;20399;-87
2022/01/09 16:31:31;;;;;;;156.10;61.63;;;0.10;99.90;;;;;;10263613;28;20031;-88
2022/01/09 16:36:32;;;;;;;120.63;52.63;;;0.20;99.90;;;;;;10274592;28;20042;-88
2022/01/09 16:41:33;;;;;;;117.43;52.97;;;0.30;99.90;;;;;;10240258;28;20039;-87
2022/01/09 16:46:34;;;;;;;100.80;47.03;;;0.40;99.90;;;;;;10270647;28;20046;-89
2022/01/09 16:51:35;;;;;;;117.07;51.50;;;0.50;99.90;;;;;;10244614;28;20035;-88
2022/01/09 16:56:38;;;;;;;113.47;52.70;;;0.60;99.90;;;;;;10226084;28;20046;-87
2022/01/09 17:01:40;;;;;;;113.13;52.00;;;0.60;99.90;;;;;;10245268;28;20066;-88
2022/01/09 17:06:41;;;;;;;110.07;51.50;;;0.70;99.90;;;;;;10237990;28;20399;-88
2022/01/09 17:11:42;;;;;;;163.87;75.70;;;0.80;99.90;;;;;;10244370;28;20122;-89
2022/01/09 17:16:43;;;;;;;134.07;63.40;;;0.80;99.90;;;;;;10229575;28;20052;-87
2022/01/09 17:21:43;;;;;;;163.83;74.77;;;0.90;99.90;;;;;;10247811;28;20419;-89
2022/01/09 17:26:48;;;;;;;138.07;60.07;;;0.90;99.90;;;;;;10231942;28;20043;-87
2022/01/09 17:31:48;;;;;;;144.80;64.00;;;0.90;99.90;;;;;;10249911;28;20545;-88
2022/01/09 17:36:49;;;;;;;167.70;71.00;;;1.00;99.90;;;;;;10243300;28;20027;-83
2022/01/09 17:41:50;;;;;;;136.07;59.27;;;1.00;99.90;;;;;;10241145;28;20038;-85
2022/01/09 17:46:50;;;;;;;192.73;82.17;;;1.10;99.90;;;;;;10240906;29;20040;-92
2022/01/09 17:51:52;;;;;;;184.80;80.53;;;1.10;99.90;;;;;;10219056;28;20054;-87
2022/01/09 17:56:52;;;;;;;176.00;77.50;;;1.10;99.90;;;;;;10231227;29;20038;-86
2022/01/09 18:01:53;;;;;;;168.63;77.37;;;1.10;99.90;;;;;;10230678;28;20039;-86
2022/01/09 18:06:54;;;;;;;173.83;84.53;;;1.10;99.90;;;;;;10227688;29;20027;-86
2022/01/09 18:11:55;;;;;;;210.77;98.00;;;1.10;99.90;;;;;;10250951;28;20098;-86
2022/01/09 18:16:55;;;;;;;225.97;98.57;;;1.10;99.90;;;;;;10227755;28;20138;-87
2022/01/09 18:21:56;;;;;;;199.80;90.00;;;1.10;99.90;;;;;;10230693;28;20031;-85
2022/01/09 18:26:57;;;;;;;226.27;98.10;;;1.10;99.90;;;;;;10248273;28;20106;-84
2022/01/09 18:31:58;;;;;;;240.47;103.83;;;1.10;99.90;;;;;;10247904;28;20471;-90
2022/01/09 18:36:58;;;;;;;248.20;112.37;;;1.10;99.90;;;;;;10230465;29;20065;-91
2022/01/09 18:42:00;;;;;;;224.43;101.60;;;1.10;99.90;;;;;;10227322;28;20034;-89
2022/01/09 18:59:04;;;;;;;212.63;91.47;;;1.10;99.90;;;;;;10198197;29;20455;-85
2022/01/09 19:04:56;;;;;;;169.87;76.37;;;1.10;99.90;;;;;;10259940;28;20129;-88
2022/01/09 19:09:57;;;;;;;131.73;59.03;;;1.10;99.90;;;;;;10262007;28;20488;-88
2022/01/09 19:14:58;;;;;;;110.37;51.17;;;1.10;99.90;;;;;;10262019;28;20022;-85
2022/01/09 19:20:01;;;;;;;124.40;57.63;;;1.10;99.90;;;;;;10260659;28;20030;-87
2022/01/09 19:25:03;;;;;;;140.37;61.13;;;1.10;99.90;;;;;;10262903;28;20495;-86
2022/01/09 19:30:09;;;;;;;148.70;62.93;;;1.10;99.90;;;;;;10251928;28;20070;-91
2022/01/09 19:35:11;;;;;;;150.73;64.40;;;1.10;99.90;;;;;;10251475;28;20035;-89
2022/01/09 19:40:14;;;;;;;133.70;57.10;;;1.10;99.90;;;;;;10259042;28;20027;-86
2022/01/09 19:45:15;;;;;;;133.57;60.27;;;1.00;99.90;;;;;;10286443;28;20074;-88
2022/01/09 19:50:16;;;;;;;156.73;69.33;;;1.10;99.90;;;;;;10265463;28;20101;-86
2022/01/09 19:55:17;;;;;;;154.87;70.10;;;1.00;99.90;;;;;;10291083;28;20046;-89
2022/01/09 20:00:30;;;;;;;129.57;58.90;;;1.10;99.90;;;;;;10288632;28;20063;-87
2022/01/09 20:05:31;;;;;;;188.83;79.77;;;1.10;99.90;;;;;;10261804;28;20078;-85
2022/01/09 20:10:33;;;;;;;146.03;64.07;;;1.00;99.90;;;;;;10264183;28;20114;-88
2022/01/09 20:15:34;;;;;;;143.20;63.80;;;1.10;99.90;;;;;;10273278;28;20682;-90
2022/01/09 20:20:34;;;;;;;137.93;59.90;;;1.00;99.90;;;;;;10259789;28;20043;-91
2022/01/09 20:25:35;;;;;;;129.27;59.47;;;1.00;99.90;;;;;;10269260;28;20134;-85
2022/01/09 20:30:37;;;;;;;150.13;71.50;;;1.00;99.90;;;;;;10239796;28;20023;-86
2022/01/09 20:35:43;;;;;;;172.93;76.53;;;0.90;99.90;;;;;;10253310;28;20058;-87
2022/01/09 20:40:44;;;;;;;232.47;94.77;;;0.80;99.90;;;;;;10254012;28;20074;-88
2022/01/09 20:45:46;;;;;;;225.27;99.00;;;0.70;99.90;;;;;;10244029;28;20424;-86
2022/01/09 20:50:47;;;;;;;240.23;98.60;;;0.80;99.90;;;;;;10249844;28;20110;-87
2022/01/09 20:55:47;;;;;;;266.00;107.47;;;0.70;99.90;;;;;;10231453;28;20545;-87
2022/01/09 21:00:49;;;;;;;312.73;118.17;;;0.70;99.90;;;;;;10251311;28;20571;-87
2022/01/09 21:05:50;;;;;;;238.03;97.73;;;0.70;99.90;;;;;;10249043;28;20442;-89
2022/01/09 21:10:51;;;;;;;182.53;76.63;;;0.70;99.90;;;;;;10250520;28;20086;-87
2022/01/09 21:15:53;;;;;;;162.30;66.53;;;0.70;99.90;;;;;;10236197;28;20077;-87
2022/01/09 21:20:55;;;;;;;166.17;71.93;;;0.70;99.90;;;;;;10232924;28;20069;-87
2022/01/09 21:25:56;;;;;;;185.60;76.27;;;0.80;99.90;;;;;;10248659;28;20467;-86
2022/01/09 21:30:57;;;;;;;179.30;76.40;;;0.80;99.90;;;;;;10235246;28;20059;-89
2022/01/09 21:35:57;;;;;;;156.57;67.40;;;0.80;99.90;;;;;;10256684;28;20063;-87
2022/01/09 21:40:58;;;;;;;166.67;69.63;;;0.80;99.90;;;;;;10236673;28;20026;-86
2022/01/09 21:45:59;;;;;;;195.53;82.30;;;0.90;99.90;;;;;;10270529;28;20049;-86
2022/01/09 21:51:00;;;;;;;237.90;95.67;;;0.90;99.90;;;;;;10267158;28;20022;-87
2022/01/09 21:56:00;;;;;;;264.13;108.87;;;0.90;99.90;;;;;;10256993;28;20090;-88
2022/01/09 22:01:01;;;;;;;252.57;105.50;;;0.90;99.90;;;;;;10232382;28;20031;-86
2022/01/09 22:06:02;;;;;;;274.77;112.23;;;0.90;99.90;;;;;;10257272;28;20473;-88
2022/01/09 22:11:03;;;;;;;273.10;105.00;;;0.90;99.90;;;;;;10247749;28;20458;-86
2022/01/09 22:16:04;;;;;;;275.60;106.50;;;0.90;99.90;;;;;;10253056;28;20039;-86
2022/01/09 22:21:04;;;;;;;206.40;86.63;;;0.90;99.90;;;;;;10272129;28;20038;-86
2022/01/09 22:26:05;;;;;;;178.30;75.17;;;1.00;99.90;;;;;;10248829;28;20058;-86
2022/01/09 22:31:06;;;;;;;149.77;62.03;;;0.90;99.90;;;;;;10241007;28;20444;-87
2022/01/09 22:36:07;;;;;;;140.87;58.93;;;0.90;99.90;;;;;;10254465;28;20376;-85
2022/01/09 22:41:08;;;;;;;147.30;57.17;;;0.90;99.90;;;;;;10265211;28;20041;-87
2022/01/09 22:46:08;;;;;;;157.20;66.50;;;0.90;99.90;;;;;;10261779;28;20051;-88
2022/01/09 22:51:09;;;;;;;220.50;87.97;;;0.90;99.90;;;;;;10249276;28;20121;-90
2022/01/09 22:56:10;;;;;;;211.00;83.63;;;0.90;99.90;;;;;;10275411;28;20054;-90
2022/01/09 23:01:10;;;;;;;220.70;87.60;;;0.90;99.90;;;;;;10270499;28;20046;-89
2022/01/09 23:06:11;;;;;;;190.07;81.93;;;0.80;99.90;;;;;;10265984;28;20468;-87
2022/01/09 23:11:12;;;;;;;208.90;85.57;;;0.90;99.90;;;;;;10230925;29;20038;-88
2022/01/09 23:16:12;;;;;;;173.17;68.10;;;0.90;99.90;;;;;;10253452;28;20039;-87
2022/01/09 23:21:13;;;;;;;155.73;66.40;;;0.90;99.90;;;;;;10268983;28;20039;-87
2022/01/09 23:26:14;;;;;;;144.37;66.20;;;0.90;99.90;;;;;;10255190;28;20042;-86
2022/01/09 23:31:16;;;;;;;139.93;63.27;;;0.90;99.90;;;;;;10269423;28;20034;-86
2022/01/09 23:36:16;;;;;;;138.73;59.53;;;0.90;99.90;;;;;;10255866;28;20487;-88
2022/01/09 23:41:17;;;;;;;140.50;62.80;;;1.00;99.90;;;;;;10259559;28;20039;-87
2022/01/09 23:46:20;;;;;;;151.87;67.17;;;1.00;99.90;;;;;;10273915;28;20039;-87
2022/01/09 23:51:21;;;;;;;148.17;68.83;;;1.00;99.90;;;;;;10276838;28;20026;-89
2022/01/09 23:56:21;;;;;;;137.37;62.00;;;1.00;99.90;;;;;;10273618;28;20605;-87
